createdAt,value
2023-03-30T00:00:23.160Z,96247.28
2023-03-30T00:02:53.932Z,96230.34
2023-03-30T00:05:23.898Z,96197.66
2023-03-30T00:07:52.099Z,96207.72
2023-03-30T00:10:20.468Z,96222.97
2023-03-30T00:12:52.816Z,96204.78
2023-03-30T00:15:23.701Z,96233.31
2023-03-30T00:17:54.954Z,96248.66
2023-03-30T00:20:24.184Z,96200.78
2023-03-30T00:22:52.392Z,96257.13
2023-03-30T00:25:23.233Z,96186.94
2023-03-30T00:27:51.484Z,96225.31
2023-03-30T00:30:20.749Z,96200.13
2023-03-30T00:32:49.027Z,96193.97
2023-03-30T00:35:19.617Z,96267.13
2023-03-30T00:37:49.445Z,96229.97
2023-03-30T00:40:21.590Z,96248.47
2023-03-30T00:42:50.353Z,96236.66
2023-03-30T00:45:26.359Z,96237.25
2023-03-30T00:48:01.389Z,96269.19
2023-03-30T00:50:37.360Z,96267.88
2023-03-30T00:53:12.313Z,96265.44
2023-03-30T00:55:41.889Z,96274.06
2023-03-30T00:58:10.879Z,96265.16
2023-03-30T01:00:40.473Z,96283.53
2023-03-30T01:03:17.522Z,96285.00
2023-03-30T01:05:48.894Z,96252.75
2023-03-30T01:08:18.370Z,96213.16
2023-03-30T01:10:48.004Z,96158.47
2023-03-30T01:13:16.569Z,96170.22
2023-03-30T01:16:05.408Z,96147.53
2023-03-30T01:18:47.742Z,96199.00
2023-03-30T01:22:00.229Z,96211.75
2023-03-30T01:25:28.680Z,96178.56
2023-03-30T01:28:28.808Z,96128.78
2023-03-30T01:31:28.288Z,96137.69
2023-03-30T01:34:35.989Z,96123.88
2023-03-30T01:37:45.921Z,95991.44
2023-03-30T01:40:18.112Z,96125.03
2023-03-30T01:42:57.828Z,96163.66
2023-03-30T01:45:37.544Z,96154.66
2023-03-30T01:48:12.370Z,96148.22
2023-03-30T01:50:43.704Z,96149.66
2023-03-30T01:53:18.303Z,96096.59
2023-03-30T01:55:54.070Z,96101.84
2023-03-30T01:58:30.103Z,96168.38
2023-03-30T02:00:59.997Z,96110.47
2023-03-30T02:03:34.112Z,96085.22
2023-03-30T02:06:09.716Z,96121.31
2023-03-30T02:08:39.468Z,96144.41
2023-03-30T02:11:09.252Z,96100.72
2023-03-30T02:13:39.117Z,96116.31
2023-03-30T02:16:13.683Z,96141.13
2023-03-30T02:18:46.471Z,96147.59
2023-03-30T02:21:15.578Z,96131.53
2023-03-30T02:23:46.314Z,96127.25
2023-03-30T02:26:16.084Z,96144.75
2023-03-30T02:28:46.265Z,96149.03
2023-03-30T02:31:16.915Z,96178.28
2023-03-30T02:34:05.530Z,96165.03
2023-03-30T02:37:11.702Z,96167.59
2023-03-30T02:39:56.638Z,96180.88
2023-03-30T02:43:14.837Z,96141.19
2023-03-30T02:45:53.986Z,96194.47
2023-03-30T02:48:37.661Z,96187.28
2023-03-30T02:51:24.751Z,96212.09
2023-03-30T02:54:27.507Z,96155.34
2023-03-30T02:57:23.605Z,96154.13
2023-03-30T02:59:59.264Z,96156.81
2023-03-30T03:02:32.425Z,96172.41
2023-03-30T03:05:14.865Z,96106.19
2023-03-30T03:08:06.175Z,96123.72
2023-03-30T03:10:36.964Z,96155.97
2023-03-30T03:13:05.929Z,96083.19
2023-03-30T03:15:35.658Z,96164.97
2023-03-30T03:18:10.570Z,96162.53
2023-03-30T03:20:38.766Z,96150.63
2023-03-30T03:23:07.731Z,96133.00
2023-03-30T03:25:48.389Z,96183.50
2023-03-30T03:28:18.703Z,96189.59
2023-03-30T03:30:51.683Z,96167.53
2023-03-30T03:33:23.345Z,96160.56
2023-03-30T03:36:00.480Z,96169.22
2023-03-30T03:38:30.964Z,96119.84
2023-03-30T03:41:00.931Z,96178.34
2023-03-30T03:43:31.241Z,96143.88
2023-03-30T03:46:00.851Z,96146.28
2023-03-30T03:48:29.304Z,96185.19
2023-03-30T03:51:00.106Z,96168.94
2023-03-30T03:53:32.740Z,96151.38
2023-03-30T03:56:05.368Z,96098.44
2023-03-30T03:58:34.729Z,96170.56
2023-03-30T04:01:04.538Z,96171.22
2023-03-30T04:03:33.133Z,96170.44
2023-03-30T04:06:04.064Z,96130.78
2023-03-30T04:08:33.355Z,96117.06
2023-03-30T04:11:12.280Z,96041.91
2023-03-30T04:13:59.064Z,96101.88
2023-03-30T04:16:49.248Z,96081.16
2023-03-30T04:19:25.404Z,96116.59
2023-03-30T04:22:24.269Z,96096.78
2023-03-30T04:25:22.709Z,96115.78
2023-03-30T04:28:11.713Z,96151.59
2023-03-30T04:31:01.183Z,96107.22
2023-03-30T04:33:52.960Z,96128.00
2023-03-30T04:36:43.267Z,96148.09
2023-03-30T04:39:30.732Z,96121.66
2023-03-30T04:42:15.620Z,96129.94
2023-03-30T04:44:51.240Z,96082.88
2023-03-30T04:47:36.175Z,96097.94
2023-03-30T04:50:14.360Z,96035.53
2023-03-30T04:53:01.541Z,96087.56
2023-03-30T04:55:50.387Z,96091.31
2023-03-30T04:58:38.597Z,96097.41
2023-03-30T05:01:24.771Z,96050.81
2023-03-30T05:04:10.033Z,96068.78
2023-03-30T05:06:58.918Z,96014.81
2023-03-30T05:09:46.250Z,95984.84
2023-03-30T05:12:40.700Z,96100.13
2023-03-30T05:15:35.856Z,96095.13
2023-03-30T05:18:25.052Z,96014.72
2023-03-30T05:21:10.790Z,95984.94
2023-03-30T05:24:02.602Z,95984.94
2023-03-30T05:26:50.260Z,95969.22
2023-03-30T05:29:45.029Z,96046.25
2023-03-30T05:32:28.575Z,96022.81
2023-03-30T05:35:26.297Z,96036.47
2023-03-30T05:38:20.729Z,96009.19
2023-03-30T05:41:09.067Z,96035.38
2023-03-30T05:43:56.094Z,96036.16
2023-03-30T05:46:36.365Z,96027.91
2023-03-30T05:49:25.929Z,96012.91
2023-03-30T05:52:14.020Z,96043.91
2023-03-30T05:55:01.086Z,96022.81
2023-03-30T05:57:46.688Z,95975.47
2023-03-30T06:00:48.208Z,96038.28
2023-03-30T06:03:50.534Z,95978.50
2023-03-30T06:06:18.964Z,95985.03
2023-03-30T06:08:51.272Z,95992.03
2023-03-30T06:11:22.574Z,95993.09
2023-03-30T06:14:05.713Z,95987.63
2023-03-30T06:16:35.439Z,96016.25
2023-03-30T06:19:04.352Z,96021.25
2023-03-30T06:21:32.705Z,96004.97
2023-03-30T06:24:18.830Z,95976.25
2023-03-30T06:26:48.610Z,95931.97
2023-03-30T06:29:19.022Z,95960.16
2023-03-30T06:31:48.031Z,95987.94
2023-03-30T06:34:36.632Z,95988.69
2023-03-30T06:37:08.837Z,95954.84
2023-03-30T06:39:38.632Z,96060.13
2023-03-30T06:42:08.386Z,96006.25
2023-03-30T06:45:03.516Z,96014.06
2023-03-30T06:47:33.049Z,96142.72
2023-03-30T06:50:01.671Z,95993.22
2023-03-30T06:52:48.759Z,96033.19
2023-03-30T06:55:18.506Z,96079.94
2023-03-30T06:57:47.850Z,96064.94
2023-03-30T07:00:18.957Z,96045.91
2023-03-30T07:03:06.808Z,96087.75
2023-03-30T07:05:53.095Z,96083.28
2023-03-30T07:08:50.657Z,96108.94
2023-03-30T07:11:26.246Z,96050.50
2023-03-30T07:13:56.243Z,96035.13
2023-03-30T07:16:26.177Z,96021.75
2023-03-30T07:18:54.850Z,96033.31
2023-03-30T07:21:26.255Z,96102.63
2023-03-30T07:23:54.547Z,96090.34
2023-03-30T07:26:36.435Z,96065.72
2023-03-30T07:29:09.088Z,96085.50
2023-03-30T07:31:41.424Z,96039.22
2023-03-30T07:34:12.311Z,96076.53
2023-03-30T07:36:46.026Z,96099.59
2023-03-30T07:39:14.324Z,96155.00
2023-03-30T07:41:45.582Z,96113.72
2023-03-30T07:44:15.275Z,96126.56
2023-03-30T07:46:45.063Z,96138.28
2023-03-30T07:49:19.913Z,96123.66
2023-03-30T07:51:48.402Z,96126.91
2023-03-30T07:54:22.962Z,96122.59
2023-03-30T07:57:12.588Z,96141.16
2023-03-30T07:59:41.214Z,96131.97
2023-03-30T08:02:21.122Z,96200.09
2023-03-30T08:04:55.131Z,96184.09
2023-03-30T08:07:30.262Z,96213.19
2023-03-30T08:10:09.888Z,96155.88
2023-03-30T08:12:38.612Z,96193.59
2023-03-30T08:15:09.373Z,96147.69
2023-03-30T08:17:39.398Z,96181.78
2023-03-30T08:20:11.756Z,96116.50
2023-03-30T08:22:40.320Z,96189.81
2023-03-30T08:25:09.607Z,96120.97
2023-03-30T08:27:37.780Z,96166.06
2023-03-30T08:30:07.811Z,96176.22
2023-03-30T08:32:36.088Z,96138.88
2023-03-30T08:35:07.195Z,96126.22
2023-03-30T08:37:35.592Z,96166.16
2023-03-30T08:40:06.465Z,96138.06
2023-03-30T08:42:55.725Z,96086.25
2023-03-30T08:45:36.021Z,96097.63
2023-03-30T08:48:05.053Z,96174.06
2023-03-30T08:50:36.694Z,96193.69
2023-03-30T08:53:07.616Z,96180.47
2023-03-30T08:55:41.646Z,96166.75
2023-03-30T08:58:17.289Z,96190.63
2023-03-30T09:00:50.810Z,96243.09
2023-03-30T09:03:28.134Z,96230.00
2023-03-30T09:06:06.349Z,96134.94
2023-03-30T09:08:35.318Z,96263.59
2023-03-30T09:11:07.951Z,96194.53
2023-03-30T09:13:37.943Z,96229.00
2023-03-30T09:16:18.115Z,96215.94
2023-03-30T09:18:49.221Z,96214.00
2023-03-30T09:21:23.299Z,96189.25
2023-03-30T09:23:53.821Z,96189.69
2023-03-30T09:26:32.660Z,96168.13
2023-03-30T09:29:06.578Z,96150.50
2023-03-30T09:31:41.237Z,96173.59
2023-03-30T09:34:24.081Z,96165.31
2023-03-30T09:36:58.964Z,96155.50
2023-03-30T09:39:32.221Z,96180.19
2023-03-30T09:42:17.977Z,96112.78
2023-03-30T09:44:51.476Z,96133.88
2023-03-30T09:47:26.989Z,96180.31
2023-03-30T09:50:00.247Z,96132.31
2023-03-30T09:52:32.046Z,96182.84
2023-03-30T09:55:18.947Z,96169.22
2023-03-30T09:57:48.721Z,96195.22
2023-03-30T10:00:31.414Z,96195.28
2023-03-30T10:03:02.600Z,96034.25
2023-03-30T10:05:33.293Z,96143.31
2023-03-30T10:08:05.586Z,96140.19
2023-03-30T10:10:36.756Z,96129.97
2023-03-30T10:13:08.547Z,96189.69
2023-03-30T10:15:40.502Z,96172.13
2023-03-30T10:18:28.770Z,96189.44
2023-03-30T10:21:04.374Z,96112.97
2023-03-30T10:23:40.141Z,96164.78
2023-03-30T10:26:15.531Z,96105.59
2023-03-30T10:28:53.962Z,96169.69
2023-03-30T10:31:25.662Z,96176.25
2023-03-30T10:33:58.939Z,96169.06
2023-03-30T10:36:32.389Z,96159.69
2023-03-30T10:39:09.922Z,96186.97
2023-03-30T10:41:41.067Z,96143.97
2023-03-30T10:44:27.054Z,96138.84
2023-03-30T10:47:09.074Z,96088.91
2023-03-30T10:49:51.669Z,96148.50
2023-03-30T10:52:28.289Z,96081.53
2023-03-30T10:55:09.351Z,96076.38
2023-03-30T10:57:51.656Z,96149.09
2023-03-30T11:00:54.537Z,96104.38
2023-03-30T11:03:27.372Z,96107.28
2023-03-30T11:06:00.698Z,96145.28
2023-03-30T11:08:33.962Z,96136.47
2023-03-30T11:11:05.515Z,96072.41
2023-03-30T11:13:38.285Z,96106.03
2023-03-30T11:16:12.383Z,96141.75
2023-03-30T11:18:48.476Z,96129.66
2023-03-30T11:21:23.008Z,96130.84
2023-03-30T11:23:55.186Z,96074.16
2023-03-30T11:26:33.357Z,96153.47
2023-03-30T11:29:10.806Z,96084.69
2023-03-30T11:31:49.908Z,96177.31
2023-03-30T11:34:29.362Z,96162.84
2023-03-30T11:37:05.274Z,96108.69
2023-03-30T11:39:38.302Z,96154.44
2023-03-30T11:42:18.375Z,96141.66
2023-03-30T11:44:46.708Z,96133.06
2023-03-30T11:47:42.378Z,96107.75
2023-03-30T11:50:25.547Z,96153.81
2023-03-30T11:53:11.274Z,96071.06
2023-03-30T11:56:03.071Z,96296.00
2023-03-30T11:58:38.016Z,96109.91
2023-03-30T12:01:26.382Z,96112.84
2023-03-30T12:04:31.203Z,96071.50
2023-03-30T12:07:02.432Z,96133.44
2023-03-30T12:09:35.782Z,96146.63
2023-03-30T12:12:12.080Z,96131.75
2023-03-30T12:15:03.729Z,96150.25
2023-03-30T12:17:42.948Z,96165.16
2023-03-30T12:20:33.777Z,96113.63
2023-03-30T12:23:17.523Z,96132.06
2023-03-30T12:26:04.388Z,96091.69
2023-03-30T12:29:05.041Z,96131.69
2023-03-30T12:32:06.415Z,96143.13
2023-03-30T12:34:36.566Z,96104.84
2023-03-30T12:37:10.038Z,96121.72
2023-03-30T12:39:48.955Z,96150.53
2023-03-30T12:42:34.738Z,96102.66
2023-03-30T12:45:22.167Z,96142.91
2023-03-30T12:48:11.236Z,96132.38
2023-03-30T12:50:47.730Z,96143.00
2023-03-30T12:53:57.528Z,96117.38
2023-03-30T12:56:35.556Z,96114.13
2023-03-30T12:59:36.709Z,96078.22
2023-03-30T13:02:38.066Z,96044.56
2023-03-30T13:05:21.364Z,96070.63
2023-03-30T13:07:52.572Z,96063.44
2023-03-30T13:10:42.515Z,96101.19
2023-03-30T13:13:24.812Z,96098.91
2023-03-30T13:15:57.676Z,96062.13
2023-03-30T13:19:04.243Z,96039.69
2023-03-30T13:22:18.933Z,96098.78
2023-03-30T13:25:41.389Z,96094.97
2023-03-30T13:28:36.968Z,96046.13
2023-03-30T13:31:19.781Z,96066.41
2023-03-30T13:33:54.017Z,96024.84
2023-03-30T13:36:26.454Z,96042.84
2023-03-30T13:39:07.342Z,96048.94
2023-03-30T13:41:50.225Z,96033.84
2023-03-30T13:44:38.595Z,96074.53
2023-03-30T13:47:28.056Z,96066.72
2023-03-30T13:50:03.440Z,96040.69
2023-03-30T13:52:38.230Z,95965.19
2023-03-30T13:55:19.622Z,96000.75
2023-03-30T13:57:47.943Z,96004.31
2023-03-30T14:00:33.400Z,96032.22
2023-03-30T14:03:27.844Z,95990.16
2023-03-30T14:09:11.169Z,96061.50
2023-03-30T14:11:45.565Z,95971.13
2023-03-30T14:14:21.949Z,96037.31
2023-03-30T14:16:50.874Z,96040.75
2023-03-30T14:19:25.725Z,96044.84
2023-03-30T14:21:59.347Z,96037.75
2023-03-30T14:24:33.822Z,95939.78
2023-03-30T14:27:08.930Z,96033.81
2023-03-30T14:29:46.162Z,96066.47
2023-03-30T14:32:16.711Z,96067.50
2023-03-30T14:34:48.387Z,95930.78
2023-03-30T14:37:19.673Z,96006.28
2023-03-30T14:39:53.854Z,96012.97
2023-03-30T14:42:27.574Z,96088.16
2023-03-30T14:44:58.119Z,95996.50
2023-03-30T14:47:28.647Z,96032.91
2023-03-30T14:49:59.913Z,95943.41
2023-03-30T14:52:33.306Z,96035.28
2023-03-30T14:55:05.969Z,96067.63
2023-03-30T14:57:41.901Z,96031.94
2023-03-30T15:00:18.674Z,96046.22
2023-03-30T15:02:48.490Z,96004.00
2023-03-30T15:05:19.164Z,96034.06
2023-03-30T15:07:50.473Z,96043.47
2023-03-30T15:10:25.724Z,96001.13
2023-03-30T15:12:58.314Z,96035.91
2023-03-30T15:15:31.136Z,96027.91
2023-03-30T15:18:00.758Z,95904.00
2023-03-30T15:20:33.383Z,95996.88
2023-03-30T15:23:02.147Z,96015.34
2023-03-30T15:25:35.263Z,96024.25
2023-03-30T15:28:09.128Z,95996.88
2023-03-30T15:30:40.060Z,96029.53
2023-03-30T15:33:20.516Z,96042.13
2023-03-30T15:35:52.397Z,95993.34
2023-03-30T15:38:30.032Z,95994.75
2023-03-30T15:40:58.334Z,96016.00
2023-03-30T15:43:30.991Z,96044.47
2023-03-30T15:46:05.441Z,95967.75
2023-03-30T15:48:42.882Z,96032.13
2023-03-30T15:51:16.649Z,95939.75
2023-03-30T15:53:51.318Z,96041.44
2023-03-30T15:56:26.726Z,96018.59
2023-03-30T15:58:58.473Z,96029.19
2023-03-30T16:01:42.404Z,95998.28
2023-03-30T16:04:16.952Z,95996.44
2023-03-30T16:06:47.501Z,95901.75
2023-03-30T16:09:16.499Z,96027.56
2023-03-30T16:11:46.334Z,96079.25
2023-03-30T16:14:20.063Z,96025.97
2023-03-30T16:16:48.691Z,95946.63
2023-03-30T16:19:20.851Z,96036.56
2023-03-30T16:21:49.717Z,96009.28
2023-03-30T16:24:17.921Z,96010.94
2023-03-30T16:26:46.791Z,96019.06
2023-03-30T16:29:21.624Z,96040.69
2023-03-30T16:31:50.582Z,96041.91
2023-03-30T16:34:19.030Z,96078.19
2023-03-30T16:36:48.069Z,96044.94
2023-03-30T16:39:19.694Z,95998.19
2023-03-30T16:41:48.453Z,96042.28
2023-03-30T16:44:19.258Z,95936.63
2023-03-30T16:46:48.180Z,96020.47
2023-03-30T16:49:21.522Z,96058.97
2023-03-30T16:51:51.333Z,95971.66
2023-03-30T16:54:30.307Z,96076.94
2023-03-30T16:57:00.294Z,96065.06
2023-03-30T16:59:32.202Z,96055.28
2023-03-30T17:02:02.564Z,96052.41
2023-03-30T17:04:30.912Z,96085.38
2023-03-30T17:06:59.161Z,96026.16
2023-03-30T17:09:27.505Z,96043.97
2023-03-30T17:11:55.769Z,96076.59
2023-03-30T17:14:24.376Z,96098.22
2023-03-30T17:16:54.066Z,96045.56
2023-03-30T17:19:22.558Z,96102.84
2023-03-30T17:21:50.931Z,96041.31
2023-03-30T17:24:20.129Z,96076.38
2023-03-30T17:26:48.462Z,96028.41
2023-03-30T17:29:16.772Z,96075.09
2023-03-30T17:31:46.356Z,96063.25
2023-03-30T17:34:16.420Z,96080.75
2023-03-30T17:36:44.718Z,96070.94
2023-03-30T17:39:15.882Z,96016.00
2023-03-30T17:41:44.232Z,96090.81
2023-03-30T17:44:13.464Z,96086.66
2023-03-30T17:46:43.057Z,96044.25
2023-03-30T17:49:18.123Z,95990.59
2023-03-30T17:51:47.153Z,96081.06
2023-03-30T17:54:15.629Z,96028.97
2023-03-30T17:56:44.062Z,96088.47
2023-03-30T17:59:12.619Z,96105.56
2023-03-30T18:01:41.090Z,96114.94
2023-03-30T18:04:13.989Z,96107.88
2023-03-30T18:06:53.554Z,96136.88
2023-03-30T18:09:21.792Z,96113.69
2023-03-30T18:11:50.018Z,96103.53
2023-03-30T18:14:18.209Z,96070.44
2023-03-30T18:16:49.987Z,96072.91
2023-03-30T18:19:19.261Z,96108.25
2023-03-30T18:21:47.515Z,96150.97
2023-03-30T18:24:17.064Z,96124.22
2023-03-30T18:26:45.862Z,96124.88
2023-03-30T18:29:20.336Z,96057.38
2023-03-30T18:31:49.418Z,96126.50
2023-03-30T18:34:19.570Z,96190.13
2023-03-30T18:36:47.851Z,96183.94
2023-03-30T18:39:21.465Z,96109.03
2023-03-30T18:41:49.748Z,96151.84
2023-03-30T18:44:18.079Z,96136.38
2023-03-30T18:46:50.665Z,96158.19
2023-03-30T18:49:22.843Z,96146.59
2023-03-30T18:51:51.903Z,96149.50
2023-03-30T18:54:21.577Z,96088.41
2023-03-30T18:56:49.996Z,96095.47
2023-03-30T18:59:22.933Z,96167.13
2023-03-30T19:01:52.237Z,96113.09
2023-03-30T19:04:21.312Z,96141.84
2023-03-30T19:06:50.281Z,96153.50
2023-03-30T19:09:18.524Z,96173.19
2023-03-30T19:11:48.526Z,96156.38
2023-03-30T19:14:17.065Z,96136.13
2023-03-30T19:16:45.259Z,96182.63
2023-03-30T19:19:15.633Z,96189.25
2023-03-30T19:21:46.155Z,96168.94
2023-03-30T19:24:14.427Z,96148.53
2023-03-30T19:26:42.674Z,96188.25
2023-03-30T19:29:12.941Z,96194.88
2023-03-30T19:31:41.223Z,96158.47
2023-03-30T19:34:09.534Z,96166.59
2023-03-30T19:36:37.765Z,96187.28
2023-03-30T19:39:06.101Z,96162.13
2023-03-30T19:41:34.433Z,96150.19
2023-03-30T19:44:02.636Z,96146.78
2023-03-30T19:46:32.268Z,96176.63
2023-03-30T19:49:00.763Z,96167.75
2023-03-30T19:51:28.956Z,96123.03
2023-03-30T19:53:57.738Z,96126.59
2023-03-30T19:56:26.750Z,96149.41
2023-03-30T19:58:54.985Z,96183.63
2023-03-30T20:01:50.407Z,96136.03
2023-03-30T20:04:18.756Z,96202.25
2023-03-30T20:06:47.034Z,96153.78
2023-03-30T20:09:16.018Z,96161.84
2023-03-30T20:11:46.567Z,96181.44
2023-03-30T20:14:14.889Z,96132.53
2023-03-30T20:16:43.494Z,96141.50
2023-03-30T20:19:28.573Z,96138.69
2023-03-30T20:21:58.199Z,96178.50
2023-03-30T20:24:27.052Z,96114.31
2023-03-30T20:26:55.389Z,96144.66
2023-03-30T20:29:23.696Z,96150.25
2023-03-30T20:31:51.976Z,96176.53
2023-03-30T20:34:21.614Z,96131.91
2023-03-30T20:36:49.951Z,96162.75
2023-03-30T20:39:21.690Z,96126.94
2023-03-30T20:41:53.967Z,96154.59
2023-03-30T20:44:30.438Z,96139.03
2023-03-30T20:46:59.530Z,96153.78
2023-03-30T20:49:29.671Z,96136.63
2023-03-30T20:52:05.624Z,96112.84
2023-03-30T20:54:33.758Z,96143.38
2023-03-30T20:57:02.032Z,96150.25
2023-03-30T20:59:30.574Z,96165.06
2023-03-30T21:01:59.181Z,96172.69
2023-03-30T21:04:29.048Z,96156.31
2023-03-30T21:06:57.309Z,96146.63
2023-03-30T21:09:26.453Z,96075.56
2023-03-30T21:11:54.764Z,96126.66
2023-03-30T21:14:25.682Z,96124.50
2023-03-30T21:16:55.724Z,96150.09
2023-03-30T21:19:26.259Z,96156.00
2023-03-30T21:21:56.598Z,96145.81
2023-03-30T21:24:24.993Z,96160.94
2023-03-30T21:26:53.565Z,96165.50
2023-03-30T21:29:23.030Z,96149.06
2023-03-30T21:31:52.090Z,96208.34
2023-03-30T21:34:22.218Z,96153.63
2023-03-30T21:36:52.293Z,96162.13
2023-03-30T21:39:23.923Z,96125.00
2023-03-30T21:41:53.075Z,96162.88
2023-03-30T21:44:21.632Z,96138.25
2023-03-30T21:46:49.986Z,96099.94
2023-03-30T21:49:18.384Z,96121.38
2023-03-30T21:51:47.453Z,96137.47
2023-03-30T21:54:19.723Z,96139.63
2023-03-30T21:56:51.165Z,96171.69
2023-03-30T21:59:20.216Z,96189.75
2023-03-30T22:04:45.056Z,96107.28
2023-03-30T22:07:14.926Z,96081.66
2023-03-30T22:09:44.495Z,96090.22
2023-03-30T22:12:17.996Z,96118.16
2023-03-30T22:14:47.292Z,96103.13
2023-03-30T22:17:18.726Z,96063.28
2023-03-30T22:19:52.058Z,96110.38
2023-03-30T22:22:21.204Z,96052.28
2023-03-30T22:24:52.414Z,96073.47
2023-03-30T22:27:22.909Z,96052.97
2023-03-30T22:29:51.927Z,96069.03
2023-03-30T22:32:22.129Z,96083.97
2023-03-30T22:34:51.362Z,96062.50
2023-03-30T22:37:26.998Z,96063.66
2023-03-30T22:39:56.155Z,96042.66
2023-03-30T22:42:26.661Z,96079.72
2023-03-30T22:44:55.744Z,96030.06
2023-03-30T22:47:29.312Z,96055.31
2023-03-30T22:50:01.097Z,96036.63
2023-03-30T22:52:30.563Z,96032.03
2023-03-30T22:54:59.451Z,96060.56
2023-03-30T22:57:30.500Z,96005.16
2023-03-30T22:59:59.126Z,96040.41
2023-03-30T23:02:31.756Z,96058.25
2023-03-30T23:05:01.561Z,96040.56
2023-03-30T23:07:31.295Z,96022.53
2023-03-30T23:10:03.471Z,96012.38
2023-03-30T23:12:33.089Z,96016.31
2023-03-30T23:15:02.417Z,96018.91
2023-03-30T23:17:30.790Z,96044.81
2023-03-30T23:20:02.343Z,96007.13
2023-03-30T23:22:30.607Z,95984.34
2023-03-30T23:24:58.858Z,96006.28
2023-03-30T23:27:27.230Z,95995.31
2023-03-30T23:29:56.828Z,96005.50
2023-03-30T23:32:25.119Z,95981.06
2023-03-30T23:34:53.275Z,95987.47
2023-03-30T23:37:22.362Z,95980.41
2023-03-30T23:39:51.547Z,95969.13
2023-03-30T23:42:19.744Z,95860.69
2023-03-30T23:44:48.372Z,95967.50
2023-03-30T23:47:18.012Z,95975.03
2023-03-30T23:49:46.263Z,95982.72
2023-03-30T23:52:14.610Z,95962.59
2023-03-30T23:54:42.806Z,95987.16
2023-03-30T23:57:11.361Z,95949.47
2023-03-30T23:59:39.642Z,95976.50
